createdAt,value
2022-10-05T00:05:27.319Z,13.64
2022-10-05T00:15:30.493Z,13.62
2022-10-05T00:25:34.905Z,13.54
2022-10-05T00:35:38.040Z,13.51
2022-10-05T00:45:46.403Z,13.46
2022-10-05T00:55:57.923Z,13.44
2022-10-05T01:06:12.988Z,13.42
2022-10-05T01:16:22.303Z,13.37
2022-10-05T01:26:44.862Z,13.34
2022-10-05T01:37:00.300Z,13.32
2022-10-05T01:47:08.885Z,13.30
2022-10-05T01:57:22.335Z,13.32
2022-10-05T02:07:30.074Z,13.33
2022-10-05T02:17:39.488Z,13.37
2022-10-05T02:27:49.682Z,13.41
2022-10-05T02:38:11.858Z,13.44
2022-10-05T02:48:25.935Z,13.44
2022-10-05T02:58:38.198Z,13.38
2022-10-05T03:08:45.824Z,13.30
2022-10-05T03:19:03.744Z,13.24
2022-10-05T03:29:18.225Z,13.19
2022-10-05T03:39:31.751Z,13.16
2022-10-05T03:49:49.119Z,13.13
2022-10-05T04:00:00.790Z,13.16
2022-10-05T04:10:14.454Z,13.16
2022-10-05T04:20:23.928Z,13.13
2022-10-05T04:30:28.226Z,13.12
2022-10-05T04:40:49.183Z,13.10
2022-10-05T04:51:04.107Z,13.14
2022-10-05T05:01:24.391Z,13.18
2022-10-05T05:11:35.259Z,13.23
2022-10-05T05:21:46.769Z,13.23
2022-10-05T05:31:57.870Z,13.20
2022-10-05T05:42:12.958Z,13.17
2022-10-05T05:52:23.458Z,13.17
2022-10-05T06:02:32.897Z,13.18
2022-10-05T06:12:39.607Z,13.20
2022-10-05T06:22:47.136Z,13.23
2022-10-05T06:33:09.230Z,13.28
2022-10-05T06:43:42.614Z,13.35
2022-10-05T06:54:04.083Z,13.45
2022-10-05T07:04:26.998Z,13.55
2022-10-05T07:14:41.144Z,13.73
2022-10-05T07:24:58.373Z,13.87
2022-10-05T07:35:30.643Z,14.09
2022-10-05T07:45:46.991Z,14.27
2022-10-05T07:55:54.846Z,14.45
2022-10-05T08:06:02.702Z,14.57
2022-10-05T08:16:12.718Z,14.80
2022-10-05T08:26:26.001Z,15.00
2022-10-05T08:36:53.026Z,15.25
2022-10-05T08:47:16.347Z,15.39
2022-10-05T08:57:53.594Z,15.53
2022-10-05T09:08:31.168Z,15.91
2022-10-05T09:19:06.417Z,16.05
2022-10-05T09:29:34.287Z,16.29
2022-10-05T09:39:56.739Z,16.52
2022-10-05T09:50:30.820Z,16.64
2022-10-05T10:00:55.563Z,16.74
2022-10-05T10:11:19.473Z,17.08
2022-10-05T10:21:46.923Z,17.49
2022-10-05T10:32:10.870Z,17.56
2022-10-05T10:42:32.520Z,17.78
2022-10-05T10:52:57.664Z,17.87
2022-10-05T11:03:39.175Z,18.07
2022-10-05T11:14:02.754Z,18.50
2022-10-05T11:24:39.003Z,18.84
2022-10-05T11:35:14.489Z,18.88
2022-10-05T11:45:23.471Z,19.15
2022-10-05T11:55:33.956Z,19.53
2022-10-05T12:05:47.664Z,19.69
2022-10-05T12:15:58.720Z,19.83
2022-10-05T12:26:05.052Z,19.92
2022-10-05T12:36:16.089Z,19.96
2022-10-05T12:46:42.506Z,20.09
2022-10-05T12:57:00.769Z,20.06
2022-10-05T13:07:31.017Z,20.25
2022-10-05T13:17:42.320Z,20.30
2022-10-05T13:27:52.739Z,20.30
2022-10-05T13:38:04.489Z,20.31
2022-10-05T13:48:19.463Z,20.06
2022-10-05T13:58:51.658Z,19.90
2022-10-05T14:08:58.316Z,19.93
2022-10-05T14:19:20.249Z,19.84
2022-10-05T14:29:26.343Z,19.66
2022-10-05T14:39:35.700Z,19.30
2022-10-05T14:50:10.840Z,19.00
2022-10-05T15:00:17.417Z,18.63
2022-10-05T15:10:32.403Z,18.37
2022-10-05T15:20:45.683Z,17.56
2022-10-05T15:31:11.386Z,17.33
2022-10-05T15:41:24.829Z,17.24
2022-10-05T15:51:40.928Z,17.02
2022-10-05T16:01:53.088Z,16.89
2022-10-05T16:12:10.319Z,16.86
2022-10-05T16:22:26.500Z,16.72
2022-10-05T16:32:34.887Z,16.56
2022-10-05T16:42:56.370Z,16.57
2022-10-05T16:53:04.887Z,16.51
2022-10-05T17:03:21.200Z,16.51
2022-10-05T17:13:52.229Z,16.48
2022-10-05T17:24:02.133Z,16.46
2022-10-05T17:34:26.399Z,16.46
2022-10-05T17:44:30.927Z,16.48
2022-10-05T17:55:07.684Z,16.53
2022-10-05T18:05:23.375Z,16.54
2022-10-05T18:15:48.834Z,16.53
2022-10-05T18:25:57.427Z,16.59
2022-10-05T18:36:08.197Z,16.59
2022-10-05T18:46:24.319Z,16.67
2022-10-05T18:56:35.113Z,16.70
2022-10-05T19:06:49.610Z,16.83
2022-10-05T19:16:59.994Z,16.84
2022-10-05T19:27:10.719Z,16.95
2022-10-05T19:37:20.932Z,16.84
2022-10-05T19:47:40.882Z,16.32
2022-10-05T19:57:48.784Z,15.51
2022-10-05T20:07:53.214Z,15.17
2022-10-05T20:18:13.711Z,15.12
2022-10-05T20:28:31.671Z,15.14
2022-10-05T20:38:40.624Z,15.16
2022-10-05T20:48:45.943Z,15.16
2022-10-05T20:58:49.045Z,15.18
2022-10-05T21:08:54.363Z,15.20
2022-10-05T21:18:57.402Z,14.50
2022-10-05T21:29:03.242Z,13.89
2022-10-05T21:39:06.286Z,13.45
2022-10-05T21:49:10.976Z,13.20
2022-10-05T21:59:18.750Z,12.96
2022-10-05T22:09:23.118Z,12.82
2022-10-05T22:19:26.147Z,12.76
2022-10-05T22:29:30.654Z,12.50
2022-10-05T22:39:34.134Z,12.29
2022-10-05T22:49:38.398Z,12.15
2022-10-05T22:59:41.338Z,12.08
2022-10-05T23:09:45.669Z,11.95
2022-10-05T23:19:48.573Z,11.77
2022-10-05T23:29:52.914Z,11.58
2022-10-05T23:39:55.841Z,11.55
2022-10-05T23:50:00.646Z,11.49
